Time;durP1;ratioP1;P1;durP2;ratioP2;P2;SDS_P1;SDS_P2;PMS_P1;PMS_P2;Temp;Humidity;BMP_temperature;BMP_pressure;BME280_temperature;BME280_humidity;BME280_pressure;Samples;Min_cycle;Max_cycle;Signal;HPM_P1;HPM_P2
2022/08/15 00:00:45;;;;;;;6.13;5.53;;;25.40;64.00;;;;;;5094083;28;20016;-66
2022/08/15 00:03:25;;;;;;;6.40;5.80;;;25.40;64.00;;;;;;5093983;28;20028;-66
2022/08/15 00:05:51;;;;;;;7.93;6.72;;;25.40;64.10;;;;;;5091270;28;20020;-66
2022/08/15 00:08:17;;;;;;;10.45;7.13;;;25.30;64.10;;;;;;5089916;28;20504;-66
2022/08/15 00:10:44;;;;;;;6.72;6.05;;;25.30;64.10;;;;;;5092993;28;20031;-66
2022/08/15 00:13:23;;;;;;;7.28;6.53;;;25.30;64.30;;;;;;5091010;28;20024;-66
2022/08/15 00:15:51;;;;;;;7.78;6.97;;;25.30;64.80;;;;;;5089804;28;20027;-66
2022/08/15 00:18:18;;;;;;;6.97;6.38;;;25.10;65.00;;;;;;5093667;28;20059;-66
2022/08/15 00:20:44;;;;;;;6.93;6.18;;;25.10;65.30;;;;;;5094077;28;20024;-66
2022/08/15 00:23:13;;;;;;;7.25;6.47;;;25.10;65.70;;;;;;5093729;28;20073;-66
2022/08/15 00:25:39;;;;;;;;;;;25.10;65.90;;;;;;5089484;28;20020;-66
2022/08/15 00:28:06;;;;;;;7.32;6.63;;;25.00;65.80;;;;;;5093651;28;19911;-66
2022/08/15 00:30:38;;;;;;;8.00;6.88;;;24.90;66.20;;;;;;5093620;28;20031;-66
2022/08/15 00:33:04;;;;;;;7.22;6.53;;;24.90;66.10;;;;;;5093746;28;20095;-66
2022/08/15 00:35:36;;;;;;;7.47;6.40;;;24.90;65.90;;;;;;5082085;28;20050;-66
2022/08/15 00:38:16;;;;;;;6.82;6.07;;;24.90;65.90;;;;;;5091201;28;20051;-66
2022/08/15 00:43:32;;;;;;;;;;;24.80;66.50;;;;;;5092865;28;20127;-66
2022/08/15 00:45:59;;;;;;;6.80;6.07;;;24.70;66.50;;;;;;5075536;28;19933;-66
2022/08/15 00:48:43;;;;;;;7.30;6.60;;;24.60;66.90;;;;;;5093466;28;20082;-66
2022/08/15 00:51:30;;;;;;;7.95;7.13;;;24.60;67.20;;;;;;5073976;28;20035;-66
2022/08/15 00:54:13;;;;;;;7.68;6.70;;;24.60;67.50;;;;;;5092832;28;20062;-66
2022/08/15 00:56:47;;;;;;;7.90;7.10;;;24.50;67.70;;;;;;5090522;28;20035;-66
2022/08/15 00:59:15;;;;;;;8.85;7.97;;;24.50;67.90;;;;;;5079570;28;20028;-66
2022/08/15 01:01:42;;;;;;;8.02;7.03;;;24.40;68.00;;;;;;5090810;28;20020;-66
2022/08/15 01:04:12;;;;;;;8.63;7.82;;;24.40;68.00;;;;;;5092916;28;20107;-66
2022/08/15 01:06:38;;;;;;;8.18;7.40;;;24.40;68.20;;;;;;5092589;28;20020;-66
2022/08/15 01:09:06;;;;;;;7.25;6.55;;;24.30;68.60;;;;;;5093158;28;20493;-66
2022/08/15 01:11:37;;;;;;;7.93;7.13;;;24.30;68.80;;;;;;5073750;28;20052;-66
2022/08/15 01:14:06;;;;;;;6.43;5.63;;;24.30;68.80;;;;;;5088475;28;20020;-66
2022/08/15 01:16:33;;;;;;;7.38;6.55;;;24.30;68.70;;;;;;5093849;28;20202;-66
2022/08/15 01:18:59;;;;;;;6.78;6.13;;;24.20;68.60;;;;;;5088433;28;20024;-66
2022/08/15 01:21:38;;;;;;;6.60;6.00;;;24.20;69.40;;;;;;5091007;28;20073;-66
2022/08/15 01:24:25;;;;;;;7.90;7.15;;;24.20;68.60;;;;;;5090636;28;20408;-66
2022/08/15 01:26:51;;;;;;;7.22;6.47;;;24.10;68.80;;;;;;5087749;28;20078;-66
2022/08/15 01:29:17;;;;;;;7.05;6.13;;;24.00;69.20;;;;;;5092251;28;20035;-66
2022/08/15 01:31:44;;;;;;;6.88;6.18;;;24.00;69.40;;;;;;5092256;28;20066;-66
2022/08/15 01:34:10;;;;;;;6.53;5.93;;;24.00;69.60;;;;;;5092361;28;20486;-66
2022/08/15 01:36:35;;;;;;;7.18;6.47;;;24.00;69.80;;;;;;5091969;28;20012;-66
2022/08/15 01:39:20;;;;;;;10.95;9.85;;;24.00;70.10;;;;;;5092715;28;20016;-66
2022/08/15 01:42:02;;;;;;;8.30;7.50;;;23.90;71.30;;;;;;5090673;28;20036;-66
2022/08/15 01:44:47;;;;;;;7.75;7.05;;;23.80;71.50;;;;;;5106414;28;20059;-66
2022/08/15 01:47:15;;;;;;;7.50;6.80;;;23.80;71.40;;;;;;5088838;28;20436;-66
2022/08/15 01:49:54;;;;;;;6.85;6.20;;;23.70;71.50;;;;;;5088470;28;20024;-65
2022/08/15 01:52:23;;;;;;;6.40;5.85;;;23.70;71.50;;;;;;5091824;28;20016;-66
2022/08/15 01:54:50;;;;;;;;;;;23.70;71.40;;;;;;5092475;28;20032;-66
2022/08/15 01:57:16;;;;;;;6.05;5.38;;;23.70;71.20;;;;;;5091767;28;19910;-66
2022/08/15 01:59:42;;;;;;;6.72;6.13;;;23.60;71.60;;;;;;5092037;28;20068;-66
2022/08/15 02:02:11;;;;;;;7.68;6.97;;;23.60;72.00;;;;;;5091651;28;20028;-66
2022/08/15 02:04:41;;;;;;;7.55;6.28;;;23.60;72.40;;;;;;5091684;28;20042;-66
2022/08/15 02:07:10;;;;;;;7.25;6.55;;;23.50;72.30;;;;;;5103434;28;20024;-66
2022/08/15 02:09:37;;;;;;;7.75;7.05;;;23.50;72.50;;;;;;5091821;28;20503;-66
2022/08/15 02:12:08;;;;;;;7.75;6.70;;;23.50;72.20;;;;;;5091416;28;20047;-66
2022/08/15 02:14:35;;;;;;;7.13;6.43;;;23.50;72.10;;;;;;5105603;28;20110;-66
2022/08/15 02:17:02;;;;;;;7.00;6.40;;;23.50;72.00;;;;;;5079025;28;20020;-66
2022/08/15 02:19:28;;;;;;;7.28;6.57;;;23.50;71.90;;;;;;5088833;28;20078;-66
2022/08/15 02:21:55;;;;;;;7.13;6.43;;;23.50;71.70;;;;;;5091031;28;20033;-66
2022/08/15 02:24:24;;;;;;;7.22;6.63;;;23.50;71.80;;;;;;5091227;28;20030;-66
2022/08/15 02:26:51;;;;;;;7.18;6.53;;;23.50;71.90;;;;;;5090246;28;20096;-66
2022/08/15 02:29:18;;;;;;;6.78;6.07;;;23.50;71.90;;;;;;5098194;28;20421;-66
2022/08/15 02:31:44;;;;;;;7.15;6.45;;;23.40;72.00;;;;;;5091594;28;20024;-66
2022/08/15 02:34:10;;;;;;;7.15;6.55;;;23.40;72.10;;;;;;5091355;28;20101;-65
2022/08/15 02:36:38;;;;;;;7.07;6.38;;;23.40;72.20;;;;;;5088212;28;20017;-66
2022/08/15 02:39:07;;;;;;;6.28;5.75;;;23.40;72.50;;;;;;5089616;28;20031;-66
2022/08/15 02:41:38;;;;;;;7.80;7.10;;;23.30;72.50;;;;;;5091004;28;20040;-66
2022/08/15 02:44:04;;;;;;;6.93;6.22;;;23.30;72.80;;;;;;5091017;28;20020;-66
2022/08/15 02:46:30;;;;;;;6.95;6.35;;;23.20;73.10;;;;;;5091299;28;20028;-66
2022/08/15 02:48:58;;;;;;;6.93;6.30;;;23.20;73.40;;;;;;5090373;28;20027;-66
2022/08/15 02:51:26;;;;;;;8.30;7.53;;;23.20;73.60;;;;;;5088204;28;20021;-66
2022/08/15 02:53:52;;;;;;;11.05;10.05;;;23.10;73.90;;;;;;5101833;28;20054;-66
2022/08/15 02:56:25;;;;;;;10.82;9.07;;;23.00;75.20;;;;;;5090971;28;20020;-66
2022/08/15 02:58:51;;;;;;;9.18;8.27;;;22.80;75.40;;;;;;5090975;28;20103;-66
2022/08/15 03:01:18;;;;;;;8.10;7.40;;;22.70;75.50;;;;;;5089637;28;20100;-66
2022/08/15 03:03:46;;;;;;;8.68;7.72;;;22.70;75.50;;;;;;5089598;28;20023;-66
2022/08/15 03:06:14;;;;;;;8.35;7.57;;;22.70;75.40;;;;;;5090892;28;20020;-66
2022/08/15 03:08:40;;;;;;;10.80;9.80;;;22.70;75.30;;;;;;5089580;28;20077;-65
2022/08/15 03:11:08;;;;;;;10.55;9.55;;;22.60;76.30;;;;;;5090922;28;20020;-66
2022/08/15 03:13:34;;;;;;;13.15;11.93;;;22.60;76.30;;;;;;5088223;28;20477;-65
2022/08/15 03:16:01;;;;;;;15.90;14.40;;;22.50;76.80;;;;;;5073176;28;20029;-66
2022/08/15 03:18:30;;;;;;;13.38;12.18;;;22.30;77.70;;;;;;5089255;28;20028;-66
2022/08/15 03:20:56;;;;;;;13.70;12.35;;;22.20;77.90;;;;;;5090338;28;20489;-66
2022/08/15 03:23:25;;;;;;;12.52;11.23;;;22.20;78.00;;;;;;5086626;28;20024;-66
2022/08/15 03:25:51;;;;;;;;;;;22.20;77.90;;;;;;5091228;28;20444;-66
2022/08/15 03:28:25;;;;;;;10.90;9.90;;;22.20;77.60;;;;;;5090477;28;19908;-66
2022/08/15 03:30:51;;;;;;;9.75;8.85;;;22.20;77.50;;;;;;5090614;28;20030;-66
2022/08/15 03:33:17;;;;;;;9.77;8.80;;;22.30;77.20;;;;;;5089859;28;20055;-66
2022/08/15 03:35:47;;;;;;;10.38;9.38;;;22.40;76.90;;;;;;5094633;28;20492;-65
2022/08/15 03:38:13;;;;;;;10.95;9.85;;;22.40;76.70;;;;;;5094708;28;20073;-66
2022/08/15 03:40:41;;;;;;;10.35;9.35;;;22.40;76.60;;;;;;5094194;28;20505;-65
2022/08/15 03:43:08;;;;;;;10.23;9.15;;;22.50;76.50;;;;;;5066117;28;20031;-66
2022/08/15 03:45:34;;;;;;;10.20;9.20;;;22.50;76.30;;;;;;5094394;28;20020;-66
2022/08/15 03:48:01;;;;;;;10.43;9.52;;;22.50;76.20;;;;;;5078637;28;20031;-66
2022/08/15 03:50:28;;;;;;;10.27;9.38;;;22.50;76.30;;;;;;5094489;28;20097;-66
2022/08/15 03:53:00;;;;;;;11.00;9.90;;;22.50;76.50;;;;;;5091818;28;20482;-65
2022/08/15 03:55:28;;;;;;;11.68;10.68;;;22.40;76.60;;;;;;5079870;28;20405;-66
2022/08/15 03:57:55;;;;;;;11.17;10.00;;;22.40;76.60;;;;;;5094422;28;20020;-65
2022/08/15 04:00:28;;;;;;;9.98;9.07;;;22.30;77.30;;;;;;5093889;28;20042;-65
2022/08/15 04:03:22;;;;;;;11.15;10.05;;;22.30;76.70;;;;;;5094271;28;20023;-65
2022/08/15 04:05:51;;;;;;;10.00;9.10;;;22.30;76.50;;;;;;5094636;28;20020;-65
2022/08/15 04:08:20;;;;;;;;;;;22.30;76.70;;;;;;5078004;28;20027;-66
2022/08/15 04:10:51;;;;;;;10.20;9.23;;;22.20;76.60;;;;;;5094211;28;19927;-66
2022/08/15 04:13:18;;;;;;;11.65;10.55;;;22.10;77.00;;;;;;5093869;28;20092;-66
2022/08/15 04:15:44;;;;;;;12.30;11.18;;;22.00;76.90;;;;;;5094001;28;20023;-66
2022/08/15 04:18:10;;;;;;;10.73;9.63;;;22.00;76.90;;;;;;5094806;28;20060;-66
2022/08/15 04:20:37;;;;;;;11.07;9.98;;;22.00;76.90;;;;;;5094986;28;20093;-66
2022/08/15 04:23:04;;;;;;;9.73;8.82;;;21.90;76.60;;;;;;5093972;28;20591;-66
2022/08/15 04:25:34;;;;;;;10.45;9.30;;;21.90;77.10;;;;;;5085202;28;20032;-65
2022/08/15 04:28:02;;;;;;;9.48;8.32;;;22.00;76.20;;;;;;5094914;28;20028;-66
2022/08/15 04:30:32;;;;;;;9.43;8.48;;;22.00;75.80;;;;;;5095301;28;20024;-66
2022/08/15 04:33:17;;;;;;;;;;;22.00;75.50;;;;;;5095109;28;20060;-66
2022/08/15 04:35:51;;;;;;;8.27;6.90;;;21.90;75.40;;;;;;5093492;28;19965;-66
2022/08/15 04:38:17;;;;;;;9.43;8.07;;;22.00;75.00;;;;;;5083511;28;20202;-65
2022/08/15 04:40:44;;;;;;;9.98;7.80;;;21.90;74.70;;;;;;5094318;28;20115;-66
2022/08/15 04:43:10;;;;;;;7.13;6.43;;;22.00;74.40;;;;;;5095108;28;20055;-65
2022/08/15 04:45:38;;;;;;;9.63;7.88;;;21.90;74.10;;;;;;5093169;28;20016;-65
2022/08/15 04:48:04;;;;;;;9.07;6.32;;;21.90;73.60;;;;;;5093527;28;20464;-65
2022/08/15 04:50:31;;;;;;;7.05;6.35;;;21.90;73.70;;;;;;5094386;28;20043;-65
2022/08/15 04:52:59;;;;;;;6.22;5.20;;;21.80;73.60;;;;;;5094824;28;20024;-65
2022/08/15 04:55:25;;;;;;;7.13;4.80;;;21.80;73.50;;;;;;5094373;28;20024;-65
2022/08/15 04:57:52;;;;;;;5.60;4.15;;;21.70;73.40;;;;;;5092645;28;20493;-65
2022/08/15 05:00:21;;;;;;;4.60;4.15;;;21.80;73.20;;;;;;5094308;28;20034;-65
2022/08/15 05:02:57;;;;;;;4.05;3.67;;;21.80;72.70;;;;;;5093000;28;20024;-65
2022/08/15 05:05:23;;;;;;;4.20;3.55;;;21.80;72.20;;;;;;5093764;28;20040;-65
2022/08/15 05:07:49;;;;;;;4.03;3.10;;;21.80;72.10;;;;;;5093248;28;20473;-65
2022/08/15 05:10:16;;;;;;;3.17;2.83;;;21.70;71.80;;;;;;5093978;28;20042;-65
2022/08/15 05:12:42;;;;;;;3.55;2.50;;;21.80;71.50;;;;;;5094661;28;20012;-65
2022/08/15 05:15:09;;;;;;;3.72;2.63;;;21.80;71.10;;;;;;5094219;28;20086;-65
2022/08/15 05:17:34;;;;;;;2.95;2.10;;;21.80;70.70;;;;;;5094673;28;20035;-65
2022/08/15 05:20:00;;;;;;;1.75;1.65;;;21.80;70.60;;;;;;5093396;28;20032;-65
2022/08/15 05:22:25;;;;;;;2.08;1.88;;;21.80;70.30;;;;;;5091200;28;20024;-66
2022/08/15 05:24:51;;;;;;;2.33;2.05;;;21.80;69.90;;;;;;5093912;28;20501;-65
2022/08/15 05:27:17;;;;;;;2.75;2.30;;;21.80;69.60;;;;;;5094127;28;20012;-65
2022/08/15 05:29:42;;;;;;;3.08;2.22;;;21.90;69.40;;;;;;5092257;28;20012;-65
2022/08/15 05:32:09;;;;;;;2.90;2.15;;;21.90;69.20;;;;;;5093989;28;20032;-65
2022/08/15 05:34:34;;;;;;;3.15;2.08;;;21.90;68.90;;;;;;5093969;28;20024;-65
2022/08/15 05:37:01;;;;;;;3.72;2.28;;;21.90;68.80;;;;;;5092036;28;20024;-65
2022/08/15 05:39:30;;;;;;;5.65;2.40;;;21.90;68.90;;;;;;5092579;28;20024;-65
2022/08/15 05:42:04;;;;;;;4.78;2.80;;;21.90;69.00;;;;;;5104372;28;20135;-65
2022/08/15 05:44:40;;;;;;;2.53;2.10;;;21.90;68.80;;;;;;5082603;28;20031;-65
2022/08/15 05:47:32;;;;;;;3.92;2.60;;;21.90;68.80;;;;;;5091956;28;20544;-65
2022/08/15 05:50:23;;;;;;;4.93;2.22;;;22.00;68.70;;;;;;5093924;28;20032;-66
2022/08/15 05:52:56;;;;;;;3.13;2.08;;;22.10;68.60;;;;;;5084787;28;20024;-65
2022/08/15 05:55:38;;;;;;;2.85;1.77;;;22.10;68.60;;;;;;5093301;28;20020;-65
2022/08/15 05:58:38;;;;;;;2.80;2.15;;;22.20;68.40;;;;;;5091209;28;20374;-65
2022/08/15 06:01:03;;;;;;;4.30;2.15;;;22.30;68.20;;;;;;5091025;28;20024;-65
2022/08/15 06:03:31;;;;;;;2.88;1.88;;;22.40;68.30;;;;;;5084849;28;20031;-65
2022/08/15 06:06:04;;;;;;;4.05;1.60;;;22.50;68.00;;;;;;5087945;28;20049;-65
2022/08/15 06:08:37;;;;;;;4.47;2.10;;;22.60;67.70;;;;;;5090041;28;20028;-65
2022/08/15 06:11:11;;;;;;;4.85;2.10;;;22.70;67.20;;;;;;5088296;28;20019;-66
2022/08/15 06:14:06;;;;;;;3.45;1.95;;;22.80;66.70;;;;;;5091433;28;20049;-65
2022/08/15 06:16:52;;;;;;;6.60;2.25;;;22.90;66.50;;;;;;5059229;28;20041;-65
2022/08/15 06:19:24;;;;;;;5.53;2.30;;;23.00;66.30;;;;;;5089742;28;20095;-65
2022/08/15 06:22:12;;;;;;;3.67;1.92;;;23.00;65.70;;;;;;5083008;28;20027;-65
2022/08/15 06:25:05;;;;;;;4.72;1.92;;;23.10;65.70;;;;;;5091394;28;20126;-65
2022/08/15 06:28:00;;;;;;;2.08;1.50;;;23.20;65.60;;;;;;5091398;28;20027;-65
2022/08/15 06:30:57;;;;;;;3.22;1.80;;;23.20;65.60;;;;;;5088290;28;20039;-65
2022/08/15 06:33:49;;;;;;;5.13;2.22;;;23.30;65.20;;;;;;5091503;28;20739;-65
2022/08/15 06:36:24;;;;;;;5.63;2.22;;;23.40;65.00;;;;;;5089156;28;20050;-65
2022/08/15 06:39:22;;;;;;;7.47;1.95;;;23.40;64.80;;;;;;5091205;28;20035;-65
2022/08/15 06:41:58;;;;;;;4.13;2.13;;;23.60;64.70;;;;;;5091182;28;20043;-65
2022/08/15 06:44:26;;;;;;;7.03;2.75;;;23.60;64.60;;;;;;5090537;28;20031;-65
2022/08/15 06:46:55;;;;;;;7.67;2.27;;;23.60;64.40;;;;;;5087247;28;20036;-65
2022/08/15 06:49:22;;;;;;;7.13;2.65;;;23.70;64.20;;;;;;5088037;28;20294;-66
2022/08/15 06:51:48;;;;;;;3.92;2.58;;;23.70;64.00;;;;;;5090214;28;20020;-66
2022/08/15 06:54:19;;;;;;;4.13;2.95;;;23.70;64.20;;;;;;5085846;28;20438;-65
2022/08/15 06:57:02;;;;;;;6.32;3.22;;;23.70;63.80;;;;;;5088350;28;20020;-66
2022/08/15 07:00:02;;;;;;;4.45;2.50;;;23.70;63.80;;;;;;5090981;28;20078;-66
2022/08/15 07:02:44;;;;;;;3.83;2.33;;;23.70;63.80;;;;;;5084793;28;20414;-65
2022/08/15 07:05:31;;;;;;;4.63;2.42;;;23.70;63.70;;;;;;5088122;28;20111;-66
2022/08/15 07:08:18;;;;;;;6.28;2.13;;;23.80;63.90;;;;;;5085967;28;20028;-65
2022/08/15 07:10:59;;;;;;;4.00;2.03;;;23.80;64.00;;;;;;5083347;28;20016;-65
2022/08/15 07:13:37;;;;;;;7.07;3.22;;;23.90;64.10;;;;;;5090641;28;20054;-65
2022/08/15 07:16:13;;;;;;;2.80;2.05;;;23.90;64.00;;;;;;5082277;28;20028;-65
2022/08/15 07:18:50;;;;;;;4.13;3.10;;;24.00;64.00;;;;;;5082505;28;20473;-65
2022/08/15 07:21:22;;;;;;;4.45;3.00;;;24.00;63.90;;;;;;5086973;28;20032;-65
2022/08/15 07:24:07;;;;;;;7.85;4.20;;;24.00;64.10;;;;;;5075410;28;20089;-65
2022/08/15 07:26:48;;;;;;;6.30;4.22;;;23.90;64.60;;;;;;5088085;28;20012;-65
2022/08/15 07:29:36;;;;;;;5.40;4.00;;;23.80;64.60;;;;;;5085807;28;20426;-65
2022/08/15 07:32:20;;;;;;;6.13;4.05;;;23.80;65.00;;;;;;5081086;28;20070;-65
2022/08/15 07:35:21;;;;;;;6.43;3.50;;;23.80;65.30;;;;;;5098889;28;20035;-65
2022/08/15 07:37:46;;;;;;;4.28;3.05;;;23.80;65.20;;;;;;5089786;28;20024;-65
2022/08/15 07:40:29;;;;;;;4.93;3.40;;;23.80;65.50;;;;;;5090303;28;20458;-65
2022/08/15 07:42:56;;;;;;;6.28;3.70;;;24.00;65.50;;;;;;5084407;28;20063;-65
2022/08/15 07:45:32;;;;;;;4.30;3.10;;;24.00;65.60;;;;;;5087410;28;20016;-65
2022/08/15 07:48:05;;;;;;;4.60;3.70;;;24.10;65.70;;;;;;5076977;28;20021;-65
2022/08/15 07:50:44;;;;;;;3.80;3.30;;;24.20;65.90;;;;;;5077742;28;20020;-65
2022/08/15 07:53:16;;;;;;;6.03;3.60;;;24.30;65.90;;;;;;5092493;28;20016;-64
2022/08/15 07:55:41;;;;;;;5.43;3.58;;;24.30;66.00;;;;;;5085410;28;20538;-64
2022/08/15 07:58:25;;;;;;;6.25;4.78;;;24.30;65.90;;;;;;5084220;28;20071;-65
2022/08/15 08:01:05;;;;;;;4.57;4.03;;;24.40;66.20;;;;;;5080725;28;20099;-65
2022/08/15 08:03:33;;;;;;;5.93;5.25;;;24.30;66.40;;;;;;5091459;28;20613;-65
2022/08/15 08:06:08;;;;;;;5.53;4.30;;;24.40;66.80;;;;;;5091760;28;20020;-65
2022/08/15 08:09:21;;;;;;;7.53;4.47;;;24.30;67.40;;;;;;5090971;28;20023;-65
2022/08/15 08:11:56;;;;;;;6.05;4.97;;;24.30;67.40;;;;;;5076396;28;20473;-65
2022/08/15 08:14:39;;;;;;;8.27;4.68;;;24.30;67.50;;;;;;5091396;28;20090;-65
2022/08/15 08:17:20;;;;;;;7.45;4.25;;;24.20;68.00;;;;;;5090810;28;20024;-65
2022/08/15 08:20:20;;;;;;;7.57;4.25;;;24.20;68.30;;;;;;5091058;28;20477;-65
2022/08/15 08:22:50;;;;;;;5.13;3.80;;;24.40;67.90;;;;;;5093471;28;20064;-65
2022/08/15 08:25:36;;;;;;;3.83;3.33;;;24.40;66.80;;;;;;5087392;28;20032;-65
2022/08/15 08:28:06;;;;;;;3.97;2.88;;;24.50;66.40;;;;;;5075682;28;20029;-65
2022/08/15 08:30:55;;;;;;;3.90;2.90;;;24.60;66.30;;;;;;5077097;28;20026;-65
2022/08/15 08:34:01;;;;;;;5.38;4.00;;;24.70;66.00;;;;;;5095198;28;20059;-65
2022/08/15 08:36:38;;;;;;;6.47;3.53;;;24.70;65.70;;;;;;5084309;28;20024;-64
2022/08/15 08:39:38;;;;;;;6.35;4.75;;;24.80;66.10;;;;;;5082696;28;20494;-65
2022/08/15 08:42:22;;;;;;;5.30;4.60;;;25.00;66.30;;;;;;5079894;28;20032;-65
2022/08/15 08:44:56;;;;;;;4.47;4.07;;;24.90;66.50;;;;;;5088081;28;20085;-64
2022/08/15 08:47:46;;;;;;;6.72;4.70;;;24.90;66.70;;;;;;5109894;28;20031;-65
2022/08/15 08:50:38;;;;;;;4.85;4.07;;;25.00;66.50;;;;;;5094614;28;20031;-65
2022/08/15 08:53:32;;;;;;;5.97;4.38;;;25.20;66.30;;;;;;5093973;28;20027;-65
2022/08/15 08:56:14;;;;;;;6.07;4.65;;;25.30;66.30;;;;;;5092500;28;20023;-65
2022/08/15 08:58:49;;;;;;;6.50;4.30;;;25.30;66.40;;;;;;5093836;28;20016;-65
2022/08/15 09:01:24;;;;;;;10.73;6.28;;;25.50;66.10;;;;;;5094144;28;20023;-65
2022/08/15 09:03:55;;;;;;;7.35;5.75;;;25.50;66.20;;;;;;5094571;28;20077;-65
2022/08/15 09:06:25;;;;;;;7.13;5.85;;;25.50;66.50;;;;;;5085184;28;20052;-65
2022/08/15 09:09:10;;;;;;;8.50;5.07;;;25.50;66.30;;;;;;5087796;28;20020;-65
2022/08/15 09:11:44;;;;;;;6.88;4.25;;;25.50;66.40;;;;;;5084380;28;20023;-65
2022/08/15 09:14:28;;;;;;;9.90;6.03;;;25.50;66.20;;;;;;5092106;28;20405;-65
2022/08/15 09:16:58;;;;;;;9.27;5.18;;;25.50;66.50;;;;;;5094117;28;20028;-65
2022/08/15 09:19:28;;;;;;;5.20;4.60;;;25.30;66.50;;;;;;5091101;28;20035;-65
2022/08/15 09:21:54;;;;;;;7.05;5.65;;;25.40;66.70;;;;;;5093798;28;20016;-65
2022/08/15 09:24:21;;;;;;;6.78;5.70;;;25.50;66.60;;;;;;5090586;28;20024;-65
2022/08/15 09:27:05;;;;;;;9.05;5.82;;;25.40;66.70;;;;;;5093831;28;20027;-65
2022/08/15 09:29:37;;;;;;;8.43;6.30;;;25.40;66.80;;;;;;5090184;28;20024;-65
2022/08/15 09:32:22;;;;;;;8.25;6.82;;;25.40;67.10;;;;;;5089477;28;20019;-65
2022/08/15 09:35:08;;;;;;;6.95;5.07;;;25.30;67.30;;;;;;5093829;28;20416;-65
2022/08/15 09:37:39;;;;;;;5.93;4.78;;;25.30;67.40;;;;;;5087441;28;20046;-65
2022/08/15 09:40:20;;;;;;;6.40;5.78;;;25.20;67.70;;;;;;5093300;28;20449;-65
2022/08/15 09:43:24;;;;;;;6.45;5.75;;;25.30;68.10;;;;;;5091598;28;20103;-65
2022/08/15 09:46:09;;;;;;;7.75;6.05;;;25.30;68.00;;;;;;5061537;28;20036;-65
2022/08/15 09:48:53;;;;;;;9.80;6.78;;;25.20;68.50;;;;;;5086066;28;20359;-65
2022/08/15 09:51:22;;;;;;;5.82;5.18;;;25.10;69.60;;;;;;5081572;28;20054;-65
2022/08/15 09:53:56;;;;;;;6.10;5.57;;;25.00;69.60;;;;;;5092775;28;20047;-65
2022/08/15 09:56:25;;;;;;;5.75;5.20;;;24.90;69.50;;;;;;5092138;28;20020;-65
2022/08/15 09:59:01;;;;;;;10.50;5.20;;;24.90;69.50;;;;;;5091847;28;20027;-65
2022/08/15 10:01:30;;;;;;;9.43;6.18;;;24.90;69.60;;;;;;5093379;28;20035;-65
2022/08/15 10:03:59;;;;;;;9.15;6.35;;;24.90;69.80;;;;;;5076556;28;20107;-65
2022/08/15 10:06:28;;;;;;;10.95;7.40;;;24.90;70.10;;;;;;5085076;28;20103;-65
2022/08/15 10:08:53;;;;;;;8.63;5.22;;;24.90;70.60;;;;;;5090228;28;20012;-65
2022/08/15 10:11:28;;;;;;;5.93;5.35;;;24.90;70.70;;;;;;5093075;28;20097;-65
2022/08/15 10:14:06;;;;;;;5.97;5.00;;;25.00;70.80;;;;;;5093137;28;20062;-65
2022/08/15 10:16:40;;;;;;;6.45;5.63;;;24.90;70.90;;;;;;5091380;28;20031;-65
2022/08/15 10:19:30;;;;;;;6.72;5.47;;;24.90;71.50;;;;;;5083307;28;20029;-65
2022/08/15 10:22:03;;;;;;;8.20;5.70;;;24.80;72.10;;;;;;5072651;28;20036;-65
2022/08/15 10:24:33;;;;;;;8.88;5.90;;;24.70;72.60;;;;;;5090349;28;20030;-65
2022/08/15 10:27:22;;;;;;;7.07;5.57;;;24.80;72.90;;;;;;5092817;28;20107;-65
2022/08/15 10:29:50;;;;;;;5.57;4.78;;;24.80;73.00;;;;;;5092468;28;20012;-65
2022/08/15 10:32:35;;;;;;;7.75;5.68;;;24.70;73.50;;;;;;5093000;28;20047;-65
2022/08/15 10:35:05;;;;;;;5.93;5.05;;;24.70;74.00;;;;;;5071824;28;20016;-65
2022/08/15 10:37:51;;;;;;;7.03;6.32;;;24.70;74.00;;;;;;5091289;28;20103;-65
2022/08/15 10:40:47;;;;;;;7.10;6.32;;;24.70;74.40;;;;;;5088086;28;20052;-65
2022/08/15 10:43:26;;;;;;;8.00;7.18;;;24.70;74.60;;;;;;5087658;28;20572;-65
2022/08/15 10:45:59;;;;;;;7.45;6.72;;;24.50;75.20;;;;;;5087946;28;20473;-65
2022/08/15 10:48:58;;;;;;;7.95;7.25;;;24.50;75.80;;;;;;5087364;28;20016;-65
2022/08/15 10:51:30;;;;;;;6.68;6.00;;;24.50;75.80;;;;;;5090855;28;20031;-65
2022/08/15 10:54:09;;;;;;;8.98;7.20;;;24.40;75.90;;;;;;5086620;28;20024;-65
2022/08/15 10:56:37;;;;;;;;;;;24.50;75.60;;;;;;5091448;28;20028;-65
2022/08/15 10:59:13;;;;;;;8.73;6.60;;;24.40;75.90;;;;;;5089171;28;19908;-65
2022/08/15 11:01:39;;;;;;;10.20;7.18;;;24.50;75.80;;;;;;5087820;28;20484;-65
2022/08/15 11:04:14;;;;;;;8.68;7.78;;;24.50;75.80;;;;;;5068275;28;20031;-65
2022/08/15 11:06:45;;;;;;;8.68;6.18;;;24.50;75.80;;;;;;5087548;28;20039;-65
2022/08/15 11:09:17;;;;;;;6.80;6.13;;;24.50;75.70;;;;;;5088379;28;20016;-65
2022/08/15 11:11:55;;;;;;;8.00;7.20;;;24.60;75.60;;;;;;5087072;28;20024;-65
2022/08/15 11:14:28;;;;;;;9.10;7.50;;;24.50;74.90;;;;;;5086108;28;20039;-65
2022/08/15 11:16:55;;;;;;;8.40;6.90;;;24.50;75.10;;;;;;5086899;28;20074;-65
2022/08/15 11:19:42;;;;;;;7.88;6.82;;;24.50;75.20;;;;;;5085588;28;20032;-65
2022/08/15 11:22:17;;;;;;;6.72;5.82;;;24.50;74.80;;;;;;5089821;28;20028;-65
2022/08/15 11:24:54;;;;;;;5.90;5.30;;;24.60;74.80;;;;;;5087361;28;20419;-65
2022/08/15 11:27:29;;;;;;;5.63;4.97;;;24.60;74.50;;;;;;5088082;28;20485;-65
2022/08/15 11:29:57;;;;;;;6.68;5.18;;;24.70;74.10;;;;;;5090745;28;20016;-65
2022/08/15 11:32:36;;;;;;;8.27;5.60;;;24.80;74.30;;;;;;5081489;28;20067;-65
2022/08/15 11:35:29;;;;;;;8.15;6.65;;;24.80;74.00;;;;;;5082485;28;20020;-65
2022/08/15 11:37:58;;;;;;;9.43;6.30;;;24.80;73.80;;;;;;5096657;28;20028;-65
2022/08/15 11:40:28;;;;;;;6.50;5.78;;;24.80;74.10;;;;;;5091812;28;20185;-65
2022/08/15 11:42:55;;;;;;;5.80;5.20;;;24.80;74.10;;;;;;5091619;28;20036;-65
2022/08/15 11:45:42;;;;;;;6.20;5.22;;;24.80;74.10;;;;;;5090419;28;20110;-65
2022/08/15 11:48:17;;;;;;;7.32;5.53;;;24.90;73.30;;;;;;5082178;28;20024;-65
2022/08/15 11:51:00;;;;;;;6.93;4.35;;;25.00;73.10;;;;;;5084096;28;20021;-65
2022/08/15 11:53:32;;;;;;;5.07;4.38;;;25.20;72.50;;;;;;5085852;28;20020;-65
2022/08/15 11:55:58;;;;;;;5.43;4.22;;;25.30;72.00;;;;;;5084336;28;20487;-65
2022/08/15 11:58:44;;;;;;;6.30;5.18;;;25.30;71.30;;;;;;5094936;28;20024;-65
2022/08/15 12:01:44;;;;;;;8.20;5.43;;;25.50;71.20;;;;;;5088188;28;20025;-65
2022/08/15 12:04:12;;;;;;;9.45;5.07;;;25.60;70.80;;;;;;5044500;28;20032;-65
2022/08/15 12:06:40;;;;;;;6.07;4.57;;;25.80;70.80;;;;;;5082435;28;20016;-65
2022/08/15 12:09:26;;;;;;;4.95;4.30;;;26.10;70.20;;;;;;5094182;28;20031;-65
2022/08/15 12:11:52;;;;;;;7.00;4.68;;;26.50;69.30;;;;;;5068150;28;20053;-65
2022/08/15 12:14:26;;;;;;;4.88;4.28;;;26.70;68.40;;;;;;5086431;28;20099;-65
2022/08/15 12:16:53;;;;;;;6.30;4.10;;;27.00;67.70;;;;;;5092631;28;20149;-65
2022/08/15 12:19:29;;;;;;;4.63;4.22;;;27.10;67.20;;;;;;5091411;28;20024;-65
2022/08/15 12:22:01;;;;;;;8.02;5.97;;;27.50;66.60;;;;;;5093810;28;20173;-65
2022/08/15 12:24:31;;;;;;;6.72;4.80;;;27.60;64.90;;;;;;5091037;28;20020;-65
2022/08/15 12:27:01;;;;;;;7.10;5.35;;;27.50;64.70;;;;;;5094579;28;20016;-65
2022/08/15 12:29:33;;;;;;;6.18;4.55;;;27.60;64.20;;;;;;5094380;28;20653;-65
2022/08/15 12:32:12;;;;;;;6.20;4.15;;;27.70;63.90;;;;;;5095190;28;20451;-65
2022/08/15 12:34:39;;;;;;;;;;;27.90;63.80;;;;;;5094829;28;20487;-65
2022/08/15 12:37:13;;;;;;;5.53;4.10;;;28.10;63.60;;;;;;5094776;28;20002;-65
2022/08/15 12:39:45;;;;;;;4.78;3.97;;;28.40;63.00;;;;;;5089937;28;20031;-65
2022/08/15 12:42:17;;;;;;;7.15;4.55;;;28.80;62.30;;;;;;5090627;28;20024;-66
2022/08/15 12:44:45;;;;;;;5.88;4.20;;;29.10;61.10;;;;;;5093011;28;20034;-66
2022/08/15 12:47:10;;;;;;;6.30;4.00;;;29.40;60.70;;;;;;5090871;28;20024;-66
2022/08/15 12:49:36;;;;;;;4.00;3.60;;;29.60;59.30;;;;;;5090267;28;20389;-66
2022/08/15 12:52:01;;;;;;;7.13;3.72;;;29.80;58.80;;;;;;5089921;28;20573;-66
2022/08/15 12:54:27;;;;;;;4.40;2.90;;;29.90;58.00;;;;;;5091296;28;20111;-66
2022/08/15 12:56:52;;;;;;;4.55;3.00;;;30.10;58.20;;;;;;5087601;28;20066;-66
2022/08/15 12:59:18;;;;;;;4.60;3.20;;;30.40;58.00;;;;;;5090344;28;20592;-66
2022/08/15 13:01:45;;;;;;;6.93;3.28;;;30.80;57.20;;;;;;5090590;28;20032;-66
2022/08/15 13:04:14;;;;;;;5.43;3.60;;;30.60;55.60;;;;;;5085982;28;20035;-66
2022/08/15 13:06:50;;;;;;;;;;;30.50;56.00;;;;;;5089901;28;20377;-66
2022/08/15 13:09:18;;;;;;;4.18;3.20;;;30.10;55.80;;;;;;5084668;28;19912;-66
2022/08/15 13:12:05;;;;;;;4.47;3.40;;;29.90;56.20;;;;;;5090413;28;20069;-66
2022/08/15 13:14:30;;;;;;;5.28;2.90;;;30.10;56.70;;;;;;5090426;28;20043;-66
2022/08/15 13:16:56;;;;;;;4.28;3.03;;;30.50;56.50;;;;;;5086958;28;20488;-66
2022/08/15 13:19:31;;;;;;;3.28;2.13;;;30.80;56.00;;;;;;5088692;28;20029;-66
2022/08/15 13:24:42;;;;;;;3.50;2.53;;;31.50;54.50;;;;;;5090816;28;20088;-66
2022/08/15 13:27:08;;;;;;;2.78;2.50;;;31.90;54.10;;;;;;5089882;28;20031;-66